Time;durP1;ratioP1;P1;durP2;ratioP2;P2;SDS_P1;SDS_P2;PMS_P1;PMS_P2;Temp;Humidity;BMP_temperature;BMP_pressure;BME280_temperature;BME280_humidity;BME280_pressure;Samples;Min_cycle;Max_cycle;Signal;HPM_P1;HPM_P2
2023/09/19 00:01:08;;;;;;;0.00;0.00;;;13.30;99.90;;;;;;5119318;27;20132;-74
2023/09/19 00:03:37;;;;;;;0.00;0.00;;;13.20;99.90;;;;;;5120602;27;20043;-74
2023/09/19 00:06:04;;;;;;;0.17;0.17;;;13.10;99.90;;;;;;5125737;27;20122;-73
2023/09/19 00:08:30;;;;;;;0.38;0.30;;;13.10;99.90;;;;;;5123404;27;20035;-74
2023/09/19 00:11:02;;;;;;;2.47;0.70;;;13.10;99.90;;;;;;5124030;27;20047;-73
2023/09/19 00:13:28;;;;;;;0.82;0.20;;;13.00;99.90;;;;;;5116285;27;20073;-73
2023/09/19 00:15:55;;;;;;;0.65;0.47;;;12.90;99.90;;;;;;5123184;27;20126;-73
2023/09/19 00:18:21;;;;;;;0.00;0.00;;;12.80;99.90;;;;;;5120745;27;20047;-73
2023/09/19 00:20:49;;;;;;;0.00;0.00;;;12.80;99.90;;;;;;5124903;27;20038;-73
2023/09/19 00:23:14;;;;;;;0.20;0.20;;;12.80;99.90;;;;;;5119118;27;20038;-74
2023/09/19 00:25:41;;;;;;;0.00;0.00;;;12.70;99.90;;;;;;5122030;27;20035;-73
2023/09/19 00:28:07;;;;;;;0.00;0.00;;;12.70;99.90;;;;;;5122730;27;20039;-74
2023/09/19 00:30:34;;;;;;;0.22;0.22;;;12.60;99.90;;;;;;5123141;27;20050;-74
2023/09/19 00:33:00;;;;;;;0.10;0.10;;;12.90;99.90;;;;;;5121571;27;20047;-73
2023/09/19 00:35:27;;;;;;;0.00;0.00;;;12.50;99.90;;;;;;5113727;27;20074;-73
2023/09/19 00:37:53;;;;;;;0.00;0.00;;;12.50;99.90;;;;;;5122354;27;20126;-73
2023/09/19 00:40:19;;;;;;;0.08;0.08;;;12.40;99.90;;;;;;5122118;27;20574;-73
2023/09/19 00:42:46;;;;;;;0.00;0.00;;;12.40;99.90;;;;;;5115808;27;20058;-73
2023/09/19 00:45:14;;;;;;;0.68;0.63;;;12.40;99.90;;;;;;5122856;27;20046;-74
2023/09/19 00:47:42;;;;;;;0.00;0.00;;;12.40;99.90;;;;;;5114572;27;20035;-73
2023/09/19 00:50:10;;;;;;;0.20;0.20;;;12.50;99.90;;;;;;5118960;27;20138;-73
2023/09/19 00:52:38;;;;;;;6.82;1.85;;;12.30;99.90;;;;;;5122140;27;20055;-74
2023/09/19 00:55:08;;;;;;;0.00;0.00;;;12.30;99.90;;;;;;5121541;27;20103;-73
2023/09/19 00:57:36;;;;;;;0.80;0.60;;;12.30;99.90;;;;;;5117584;27;20047;-73
2023/09/19 01:00:07;;;;;;;0.35;0.35;;;12.30;99.90;;;;;;5116128;27;20062;-73
2023/09/19 01:02:34;;;;;;;0.00;0.00;;;12.30;99.90;;;;;;5119989;27;20048;-73
2023/09/19 01:05:00;;;;;;;0.00;0.00;;;12.30;99.90;;;;;;5121345;27;20126;-74
2023/09/19 01:07:30;;;;;;;3.03;1.45;;;12.30;99.90;;;;;;5124301;27;20047;-73
2023/09/19 01:09:58;;;;;;;0.00;0.00;;;12.20;99.90;;;;;;5121688;27;20031;-74
2023/09/19 01:12:42;;;;;;;0.00;0.00;;;12.20;99.90;;;;;;5118797;27;20074;-73
2023/09/19 01:15:35;;;;;;;0.03;0.03;;;12.20;99.90;;;;;;5102724;27;20050;-73
2023/09/19 01:18:05;;;;;;;0.00;0.00;;;12.10;99.90;;;;;;5113930;28;20094;-74
2023/09/19 01:20:33;;;;;;;1.42;0.95;;;12.20;99.90;;;;;;5126051;27;20047;-73
2023/09/19 01:23:08;;;;;;;0.35;0.30;;;12.10;99.90;;;;;;5122560;28;20176;-74
2023/09/19 01:26:08;;;;;;;0.00;0.00;;;12.00;99.90;;;;;;5125021;28;20115;-74
2023/09/19 01:28:47;;;;;;;0.43;0.17;;;11.90;99.90;;;;;;5112926;28;20496;-73
2023/09/19 01:31:14;;;;;;;0.00;0.00;;;11.90;99.90;;;;;;5122182;27;20043;-74
2023/09/19 01:34:00;;;;;;;0.00;0.00;;;11.80;99.90;;;;;;5121607;28;20126;-74
2023/09/19 01:36:35;;;;;;;0.22;0.20;;;11.80;99.90;;;;;;5109779;28;20380;-73
2023/09/19 01:39:10;;;;;;;0.63;0.57;;;11.80;99.90;;;;;;5120274;28;20392;-74
2023/09/19 01:41:44;;;;;;;0.00;0.00;;;11.80;99.90;;;;;;5113572;28;20038;-74
2023/09/19 01:44:17;;;;;;;0.00;0.00;;;11.90;99.90;;;;;;5114767;28;20087;-74
2023/09/19 01:46:47;;;;;;;0.00;0.00;;;11.60;99.90;;;;;;5105924;28;20074;-73
2023/09/19 01:49:23;;;;;;;0.00;0.00;;;11.60;99.90;;;;;;5116033;27;20404;-74
2023/09/19 01:51:58;;;;;;;0.10;0.10;;;11.60;99.90;;;;;;5100786;28;20559;-74
2023/09/19 01:54:32;;;;;;;1.45;1.02;;;11.90;99.90;;;;;;5114028;27;20122;-74
2023/09/19 01:57:09;;;;;;;0.10;0.10;;;11.60;99.90;;;;;;5118018;28;20492;-73
2023/09/19 01:59:46;;;;;;;0.00;0.00;;;11.60;99.90;;;;;;5122041;27;20089;-73
2023/09/19 02:02:14;;;;;;;0.60;0.60;;;11.60;99.90;;;;;;5120500;28;20048;-74
2023/09/19 02:04:39;;;;;;;2.17;0.60;;;11.50;99.90;;;;;;5121702;28;20516;-74
2023/09/19 02:07:05;;;;;;;0.00;0.00;;;11.50;99.90;;;;;;5119496;28;20035;-73
2023/09/19 02:09:33;;;;;;;0.00;0.00;;;11.60;99.90;;;;;;5123715;27;20488;-73
2023/09/19 02:11:59;;;;;;;0.08;0.08;;;11.60;99.90;;;;;;5120508;27;20581;-73
2023/09/19 02:14:24;;;;;;;3.92;1.70;;;11.60;99.90;;;;;;5118792;28;20100;-73
2023/09/19 02:16:50;;;;;;;0.20;0.20;;;11.50;99.90;;;;;;5127316;28;20403;-73
2023/09/19 02:19:16;;;;;;;0.10;0.10;;;11.50;99.90;;;;;;5120662;28;20035;-73
2023/09/19 02:21:43;;;;;;;0.00;0.00;;;11.40;99.90;;;;;;5121136;28;20123;-73
2023/09/19 02:24:10;;;;;;;0.10;0.10;;;11.30;99.90;;;;;;5117623;28;20048;-73
2023/09/19 02:26:36;;;;;;;0.90;0.52;;;11.30;99.90;;;;;;5123988;28;20433;-73
2023/09/19 02:29:04;;;;;;;0.00;0.00;;;11.30;99.90;;;;;;5122295;27;20495;-73
2023/09/19 02:31:30;;;;;;;0.00;0.00;;;11.30;99.90;;;;;;5119119;27;20480;-73
2023/09/19 02:33:56;;;;;;;0.10;0.10;;;11.30;99.90;;;;;;5124332;27;20374;-73
2023/09/19 02:36:23;;;;;;;0.50;0.38;;;11.30;99.90;;;;;;5124228;27;20058;-73
2023/09/19 02:38:49;;;;;;;0.32;0.30;;;11.30;99.90;;;;;;5127698;27;20068;-73
2023/09/19 02:41:14;;;;;;;0.60;0.08;;;11.40;99.90;;;;;;5125819;27;20047;-73
2023/09/19 02:43:40;;;;;;;0.13;0.10;;;11.40;99.90;;;;;;5124518;27;20445;-73
2023/09/19 02:46:06;;;;;;;0.20;0.15;;;11.40;99.90;;;;;;5123024;27;20048;-72
2023/09/19 02:48:34;;;;;;;0.08;0.08;;;11.40;99.90;;;;;;5125195;27;20054;-73
2023/09/19 02:51:00;;;;;;;1.95;0.65;;;11.50;99.90;;;;;;5124654;27;20489;-73
2023/09/19 02:53:25;;;;;;;0.32;0.20;;;11.60;99.90;;;;;;5118209;27;20043;-73
2023/09/19 02:55:52;;;;;;;0.00;0.00;;;11.50;99.90;;;;;;5119266;27;20079;-73
2023/09/19 02:58:18;;;;;;;0.08;0.08;;;11.50;99.90;;;;;;5126238;27;20051;-73
2023/09/19 03:00:47;;;;;;;0.00;0.00;;;11.50;99.90;;;;;;5124204;27;20070;-73
2023/09/19 03:03:13;;;;;;;1.10;0.60;;;11.50;99.90;;;;;;5127546;27;20110;-73
2023/09/19 03:05:38;;;;;;;0.00;0.00;;;11.40;99.90;;;;;;5124916;27;20403;-73
2023/09/19 03:08:04;;;;;;;1.45;0.25;;;11.40;99.90;;;;;;5124160;27;20446;-73
2023/09/19 03:10:30;;;;;;;0.30;0.25;;;11.40;99.90;;;;;;5129640;27;20537;-73
2023/09/19 03:12:57;;;;;;;0.35;0.32;;;11.50;99.90;;;;;;5123793;27;20039;-73
2023/09/19 03:15:23;;;;;;;0.85;0.73;;;11.50;99.90;;;;;;5127373;27;20121;-73
2023/09/19 03:17:49;;;;;;;0.20;0.20;;;11.50;99.90;;;;;;5116476;27;20118;-73
2023/09/19 03:20:17;;;;;;;2.03;0.75;;;11.50;99.90;;;;;;5122988;27;20496;-73
2023/09/19 03:22:46;;;;;;;0.55;0.55;;;11.50;99.90;;;;;;5122517;27;20062;-74
2023/09/19 03:25:12;;;;;;;0.65;0.25;;;11.50;99.90;;;;;;5124398;27;20043;-73
2023/09/19 03:27:39;;;;;;;0.15;0.13;;;11.40;99.90;;;;;;5123043;27;20039;-74
2023/09/19 03:30:08;;;;;;;0.00;0.00;;;11.50;99.90;;;;;;5123021;27;20047;-73
2023/09/19 03:32:37;;;;;;;0.00;0.00;;;11.60;99.90;;;;;;5120796;27;20039;-74
2023/09/19 03:35:06;;;;;;;2.42;1.08;;;11.60;99.90;;;;;;5121370;27;20096;-73
2023/09/19 03:37:33;;;;;;;0.00;0.00;;;11.60;99.90;;;;;;5126455;27;20480;-73
2023/09/19 03:39:59;;;;;;;0.35;0.35;;;11.60;99.90;;;;;;5118693;27;20126;-73
2023/09/19 03:42:26;;;;;;;0.03;0.03;;;11.80;99.90;;;;;;5132624;27;20556;-73
2023/09/19 03:44:52;;;;;;;0.00;0.00;;;11.50;99.90;;;;;;5119578;27;20043;-73
2023/09/19 03:47:19;;;;;;;0.65;0.65;;;11.40;99.90;;;;;;5106238;27;20448;-74
2023/09/19 03:49:44;;;;;;;0.00;0.00;;;11.40;99.90;;;;;;5099082;27;20379;-73
2023/09/19 03:52:10;;;;;;;0.13;0.13;;;11.30;99.90;;;;;;5106581;27;20051;-73
2023/09/19 03:54:36;;;;;;;3.10;0.57;;;11.40;99.90;;;;;;5099787;27;20051;-73
2023/09/19 03:57:04;;;;;;;0.10;0.10;;;11.40;99.90;;;;;;5098303;27;20170;-74
2023/09/19 03:59:29;;;;;;;0.00;0.00;;;11.40;99.90;;;;;;5114039;27;20075;-73
2023/09/19 04:01:56;;;;;;;0.10;0.10;;;11.60;99.90;;;;;;5124944;27;20089;-74
2023/09/19 04:04:24;;;;;;;0.00;0.00;;;11.50;99.90;;;;;;5124937;27;20043;-73
2023/09/19 04:06:50;;;;;;;0.00;0.00;;;11.50;99.90;;;;;;5116316;27;20168;-73
2023/09/19 04:09:16;;;;;;;1.08;0.95;;;11.60;99.90;;;;;;5107568;27;20066;-73
2023/09/19 04:11:42;;;;;;;0.00;0.00;;;11.60;99.90;;;;;;5118323;27;20449;-73
2023/09/19 04:14:07;;;;;;;1.08;0.85;;;11.70;99.90;;;;;;5118486;27;20043;-73
2023/09/19 04:16:33;;;;;;;0.57;0.40;;;11.60;99.90;;;;;;5124907;27;20110;-73
2023/09/19 04:18:58;;;;;;;0.20;0.20;;;11.60;99.90;;;;;;5121687;27;20043;-73
2023/09/19 04:21:24;;;;;;;0.00;0.00;;;11.70;99.90;;;;;;5122073;27;20074;-73
2023/09/19 04:23:49;;;;;;;0.00;0.00;;;11.80;99.90;;;;;;5118882;27;20048;-73
2023/09/19 04:26:16;;;;;;;0.28;0.28;;;11.90;99.90;;;;;;5119075;27;20492;-73
2023/09/19 04:28:42;;;;;;;0.28;0.22;;;11.90;99.90;;;;;;5124548;27;20067;-73
2023/09/19 04:31:08;;;;;;;0.10;0.10;;;12.00;99.90;;;;;;5122480;27;20114;-73
2023/09/19 04:33:35;;;;;;;0.13;0.10;;;12.10;99.90;;;;;;5121738;27;20564;-73
2023/09/19 04:36:00;;;;;;;0.20;0.20;;;12.10;99.90;;;;;;5123115;27;20043;-73
2023/09/19 04:38:27;;;;;;;0.00;0.00;;;12.40;99.90;;;;;;5121132;27;20046;-73
2023/09/19 04:40:58;;;;;;;0.00;0.00;;;12.20;99.90;;;;;;5119203;27;20052;-73
2023/09/19 04:43:24;;;;;;;0.35;0.35;;;12.20;99.90;;;;;;5122791;27;20051;-73
2023/09/19 04:45:50;;;;;;;1.55;0.25;;;12.20;99.90;;;;;;5114958;27;20066;-73
2023/09/19 04:48:16;;;;;;;0.65;0.57;;;12.20;99.90;;;;;;5111294;27;20051;-73
2023/09/19 04:50:42;;;;;;;0.00;0.00;;;12.20;99.90;;;;;;5121802;27;20035;-73
2023/09/19 04:53:08;;;;;;;6.03;0.20;;;12.30;99.90;;;;;;5117122;27;20062;-73
2023/09/19 04:55:34;;;;;;;0.63;0.38;;;12.40;99.90;;;;;;5104637;27;20512;-73
2023/09/19 04:57:59;;;;;;;0.00;0.00;;;12.40;99.90;;;;;;5121548;27;20046;-73
2023/09/19 05:00:27;;;;;;;0.00;0.00;;;12.60;99.90;;;;;;5120932;27;20163;-74
2023/09/19 05:02:58;;;;;;;0.20;0.08;;;12.50;99.90;;;;;;5123548;27;20508;-73
2023/09/19 05:05:25;;;;;;;0.20;0.15;;;12.50;99.90;;;;;;5123229;27;20043;-73
2023/09/19 05:07:51;;;;;;;8.48;0.82;;;12.70;99.90;;;;;;5121336;27;20060;-73
2023/09/19 05:10:18;;;;;;;0.00;0.00;;;12.50;99.90;;;;;;5121429;27;20092;-73
2023/09/19 05:12:47;;;;;;;0.65;0.65;;;12.60;99.90;;;;;;5122244;27;20040;-73
2023/09/19 05:15:12;;;;;;;0.10;0.10;;;12.70;99.90;;;;;;5121435;27;20080;-73
2023/09/19 05:17:39;;;;;;;0.57;0.57;;;12.50;99.90;;;;;;5122463;27;20446;-73
2023/09/19 05:20:24;;;;;;;0.10;0.10;;;13.70;99.90;;;;;;5120243;28;20489;-73
2023/09/19 05:23:14;;;;;;;0.88;0.15;;;12.50;99.90;;;;;;5120759;28;20047;-73
2023/09/19 05:25:40;;;;;;;0.22;0.22;;;12.60;99.90;;;;;;5109500;27;20036;-73
2023/09/19 05:28:14;;;;;;;0.22;0.22;;;12.40;99.90;;;;;;5121652;27;20063;-74
2023/09/19 05:30:42;;;;;;;3.50;1.10;;;12.40;99.90;;;;;;5124166;27;20039;-73
2023/09/19 05:33:08;;;;;;;0.00;0.00;;;12.80;99.90;;;;;;5123244;27;20075;-73
2023/09/19 05:35:36;;;;;;;0.93;0.25;;;12.40;99.90;;;;;;5120125;28;20143;-73
2023/09/19 05:38:02;;;;;;;12.32;0.47;;;12.50;99.90;;;;;;5123979;27;20050;-73
2023/09/19 05:40:28;;;;;;;0.10;0.10;;;12.50;99.90;;;;;;5119864;28;20464;-73
2023/09/19 05:42:53;;;;;;;9.02;1.65;;;12.50;99.90;;;;;;5119610;28;20043;-73
2023/09/19 05:45:22;;;;;;;0.00;0.00;;;12.50;99.90;;;;;;5121125;27;20123;-73
2023/09/19 05:47:49;;;;;;;2.83;1.45;;;12.50;99.90;;;;;;5119726;27;20039;-73
2023/09/19 05:50:16;;;;;;;0.00;0.00;;;12.50;99.90;;;;;;5115661;28;20048;-73
2023/09/19 05:52:44;;;;;;;0.10;0.10;;;12.50;99.90;;;;;;5114155;27;20051;-72
2023/09/19 05:55:10;;;;;;;0.38;0.38;;;12.50;99.90;;;;;;5108452;27;20036;-73
2023/09/19 05:57:38;;;;;;;1.98;1.33;;;12.50;99.90;;;;;;5120963;28;20051;-73
2023/09/19 06:00:11;;;;;;;0.98;0.63;;;12.50;99.90;;;;;;5123687;27;20043;-73
2023/09/19 06:02:37;;;;;;;0.47;0.40;;;12.50;99.90;;;;;;5120312;27;20476;-73
2023/09/19 06:05:06;;;;;;;0.00;0.00;;;12.90;99.90;;;;;;5112395;28;20043;-73
2023/09/19 06:07:37;;;;;;;1.60;0.85;;;12.60;99.90;;;;;;5101885;27;20115;-73
2023/09/19 06:10:06;;;;;;;0.43;0.43;;;12.70;99.90;;;;;;5099962;27;20412;-73
2023/09/19 06:12:37;;;;;;;0.05;0.03;;;12.70;99.90;;;;;;5088926;27;20035;-73
2023/09/19 06:15:05;;;;;;;2.75;1.38;;;12.80;99.90;;;;;;5097864;27;20484;-73
2023/09/19 06:17:31;;;;;;;0.60;0.43;;;12.80;99.90;;;;;;5096783;27;20497;-73
2023/09/19 06:19:56;;;;;;;0.38;0.38;;;12.90;99.90;;;;;;5101479;27;20092;-73
2023/09/19 06:22:23;;;;;;;0.10;0.10;;;13.00;99.90;;;;;;5102410;27;20373;-73
2023/09/19 06:24:50;;;;;;;0.52;0.50;;;13.10;99.90;;;;;;5098555;27;20039;-73
2023/09/19 06:27:15;;;;;;;0.00;0.00;;;13.00;1.00;;;;;;5100972;27;20063;-73
2023/09/19 06:29:41;;;;;;;2.05;0.93;;;13.20;1.00;;;;;;5126060;27;20039;-73
2023/09/19 06:32:10;;;;;;;0.00;0.00;;;13.30;99.90;;;;;;5125340;27;20405;-72
2023/09/19 06:34:38;;;;;;;0.00;0.00;;;14.50;99.90;;;;;;5123803;27;20081;-73
2023/09/19 06:37:06;;;;;;;0.85;0.52;;;13.50;99.90;;;;;;5124542;27;20050;-73
2023/09/19 06:39:31;;;;;;;0.10;0.10;;;13.60;99.90;;;;;;5127847;27;20043;-74
2023/09/19 06:41:58;;;;;;;0.00;0.00;;;13.60;1.00;;;;;;5126850;27;20377;-73
2023/09/19 06:44:24;;;;;;;2.05;0.77;;;13.70;99.90;;;;;;5124443;27;20118;-73
2023/09/19 06:46:51;;;;;;;1.92;0.98;;;13.70;1.00;;;;;;5118790;27;20039;-73
2023/09/19 06:49:17;;;;;;;0.17;0.17;;;13.70;99.90;;;;;;5122837;27;20083;-73
2023/09/19 06:51:43;;;;;;;0.00;0.00;;;13.70;99.90;;;;;;5126709;27;20139;-73
2023/09/19 06:54:09;;;;;;;0.25;0.25;;;13.70;99.90;;;;;;5126121;27;20043;-73
2023/09/19 06:56:35;;;;;;;0.10;0.10;;;13.70;99.90;;;;;;5125251;27;20100;-73
2023/09/19 06:59:02;;;;;;;0.95;0.73;;;13.80;1.00;;;;;;5124460;27;20043;-73
2023/09/19 07:01:28;;;;;;;2.20;0.90;;;14.00;99.90;;;;;;5132928;27;20047;-73
2023/09/19 07:03:54;;;;;;;4.15;1.08;;;14.10;1.00;;;;;;5116067;27;20476;-73
2023/09/19 07:06:20;;;;;;;0.00;0.00;;;14.20;99.90;;;;;;5124279;27;20082;-73
2023/09/19 07:08:46;;;;;;;0.00;0.00;;;14.30;99.90;;;;;;5121597;27;20476;-73
2023/09/19 07:11:12;;;;;;;0.00;0.00;;;14.30;99.90;;;;;;5104350;27;20046;-73
2023/09/19 07:13:39;;;;;;;0.35;0.35;;;14.30;1.00;;;;;;5098258;27;20481;-73
2023/09/19 07:16:04;;;;;;;0.10;0.08;;;14.20;93.50;;;;;;5095826;27;20486;-73
2023/09/19 07:18:31;;;;;;;0.20;0.20;;;14.20;99.90;;;;;;5094592;27;20039;-73
2023/09/19 07:21:04;;;;;;;0.00;0.00;;;14.50;99.90;;;;;;5093798;27;20053;-73
2023/09/19 07:23:34;;;;;;;0.35;0.15;;;14.20;1.00;;;;;;5095811;27;20039;-73
2023/09/19 07:26:01;;;;;;;0.25;0.25;;;14.30;1.00;;;;;;5097757;27;20456;-73
2023/09/19 07:28:28;;;;;;;0.57;0.57;;;14.50;99.90;;;;;;5105904;27;20043;-73
2023/09/19 07:30:53;;;;;;;0.55;0.40;;;14.60;44.90;;;;;;5121239;27;20143;-73
2023/09/19 07:33:19;;;;;;;2.35;0.38;;;14.70;99.80;;;;;;5120019;27;20510;-73
2023/09/19 07:35:48;;;;;;;0.63;0.40;;;14.80;1.00;;;;;;5120433;27;20122;-73
2023/09/19 07:38:14;;;;;;;2.83;0.20;;;14.80;93.70;;;;;;5120815;27;20047;-73
2023/09/19 07:40:39;;;;;;;1.40;0.77;;;15.00;99.90;;;;;;5097366;27;20039;-73
2023/09/19 07:43:06;;;;;;;0.22;0.20;;;15.10;99.90;;;;;;5098329;27;20047;-73
2023/09/19 07:45:32;;;;;;;0.10;0.10;;;15.00;99.90;;;;;;5094979;27;20039;-73
2023/09/19 07:47:57;;;;;;;6.22;0.25;;;15.10;99.90;;;;;;5095507;27;20175;-73
2023/09/19 07:50:23;;;;;;;0.22;0.22;;;15.10;99.90;;;;;;5091363;27;20039;-73
2023/09/19 07:52:53;;;;;;;0.15;0.15;;;15.20;99.90;;;;;;5119541;27;20093;-73
2023/09/19 07:55:20;;;;;;;0.43;0.20;;;15.20;99.90;;;;;;5120429;27;20049;-73
2023/09/19 07:57:46;;;;;;;0.30;0.22;;;15.30;96.40;;;;;;5122311;27;20043;-73
2023/09/19 08:00:13;;;;;;;0.20;0.10;;;15.40;84.10;;;;;;5122892;27;20058;-73
2023/09/19 08:02:42;;;;;;;0.30;0.20;;;15.50;1.00;;;;;;5120784;27;20035;-73
2023/09/19 08:05:15;;;;;;;0.08;0.08;;;15.60;1.00;;;;;;5122352;27;20050;-73
2023/09/19 08:07:43;;;;;;;0.08;0.08;;;15.80;1.00;;;;;;5121163;27;20050;-73
2023/09/19 08:10:15;;;;;;;1.00;0.63;;;15.60;25.40;;;;;;5119860;27;20401;-73
2023/09/19 08:12:47;;;;;;;0.15;0.15;;;15.60;1.00;;;;;;5120343;27;20043;-73
2023/09/19 08:15:20;;;;;;;0.57;0.45;;;15.70;1.00;;;;;;5122003;27;20068;-73
2023/09/19 08:17:46;;;;;;;0.63;0.40;;;15.60;1.00;;;;;;5121774;27;20078;-73
2023/09/19 08:20:19;;;;;;;0.00;0.00;;;15.70;1.00;;;;;;5119831;27;20103;-73
2023/09/19 08:22:56;;;;;;;1.88;0.55;;;15.80;1.00;;;;;;5119983;27;20040;-73
2023/09/19 08:25:23;;;;;;;0.43;0.28;;;15.60;99.90;;;;;;5114257;27;20046;-73
2023/09/19 08:27:49;;;;;;;0.22;0.22;;;15.60;99.90;;;;;;5116309;27;20075;-73
2023/09/19 08:30:26;;;;;;;0.00;0.00;;;15.60;99.90;;;;;;5122758;27;20046;-73
2023/09/19 08:33:04;;;;;;;1.27;0.40;;;15.60;99.90;;;;;;5122828;27;20047;-73
2023/09/19 08:35:30;;;;;;;1.00;0.70;;;15.70;99.90;;;;;;5109982;27;20447;-73
2023/09/19 08:37:56;;;;;;;0.00;0.00;;;15.80;1.00;;;;;;5122180;27;20126;-74
2023/09/19 08:40:22;;;;;;;0.30;0.30;;;15.90;1.00;;;;;;5118670;27;20078;-73
2023/09/19 08:42:53;;;;;;;0.68;0.32;;;16.20;99.90;;;;;;5118962;27;20079;-73
2023/09/19 08:45:20;;;;;;;1.15;0.80;;;16.60;99.90;;;;;;5114635;27;20052;-73
2023/09/19 08:48:05;;;;;;;1.50;0.60;;;17.00;99.90;;;;;;5122026;27;20126;-73
2023/09/19 08:50:33;;;;;;;0.70;0.45;;;17.30;99.90;;;;;;5117353;27;20063;-73
2023/09/19 08:53:10;;;;;;;11.88;3.13;;;17.50;99.90;;;;;;5117278;27;20110;-73
2023/09/19 08:55:37;;;;;;;0.55;0.30;;;17.70;99.90;;;;;;5121722;27;20031;-73
2023/09/19 08:58:06;;;;;;;0.00;0.00;;;17.70;99.90;;;;;;5122232;27;20043;-73
2023/09/19 09:00:32;;;;;;;0.00;0.00;;;17.70;99.90;;;;;;5120008;27;20043;-74
2023/09/19 09:03:00;;;;;;;0.30;0.17;;;18.00;99.90;;;;;;5116593;27;20078;-74
2023/09/19 09:05:28;;;;;;;2.80;1.33;;;18.40;99.90;;;;;;5117948;27;20171;-74
2023/09/19 09:07:56;;;;;;;0.35;0.25;;;18.60;89.00;;;;;;5121273;27;20043;-74
2023/09/19 09:10:22;;;;;;;0.32;0.10;;;18.60;87.90;;;;;;5121922;27;20051;-74
2023/09/19 09:12:57;;;;;;;8.68;1.95;;;18.70;31.10;;;;;;5117715;27;20142;-74
2023/09/19 09:15:23;;;;;;;18.70;1.70;;;18.80;9.80;;;;;;5118362;27;20441;-74
2023/09/19 09:17:57;;;;;;;0.55;0.40;;;18.70;1.00;;;;;;5114462;27;20353;-74
2023/09/19 09:20:22;;;;;;;0.47;0.35;;;18.80;8.40;;;;;;5113177;27;20043;-74
2023/09/19 09:22:58;;;;;;;2.53;0.40;;;18.60;1.00;;;;;;5118694;28;20400;-74
2023/09/19 09:25:56;;;;;;;2.65;1.15;;;18.50;1.00;;;;;;5119703;27;20164;-74
2023/09/19 09:28:26;;;;;;;0.82;0.55;;;18.80;1.00;;;;;;5112438;28;20043;-74
2023/09/19 09:30:52;;;;;;;0.55;0.35;;;19.10;1.00;;;;;;5118074;28;20549;-74
2023/09/19 09:33:18;;;;;;;0.25;0.25;;;19.10;1.00;;;;;;5121159;27;20039;-74
2023/09/19 09:36:00;;;;;;;2.63;1.50;;;19.00;1.00;;;;;;5120706;27;20051;-74
2023/09/19 09:38:28;;;;;;;0.10;0.10;;;19.10;1.00;;;;;;5110380;28;20048;-74
2023/09/19 09:43:40;;;;;;;0.05;0.05;;;19.20;1.00;;;;;;5114423;27;20074;-73
2023/09/19 09:51:46;;;;;;;0.20;0.20;;;19.30;1.00;;;;;;5114238;27;20090;-74
2023/09/19 09:54:14;;;;;;;0.20;0.10;;;19.40;1.00;;;;;;5125291;27;20129;-74
2023/09/19 09:57:00;;;;;;;0.30;0.30;;;19.50;1.00;;;;;;5115140;27;20071;-74
2023/09/19 09:59:59;;;;;;;0.57;0.57;;;19.60;1.00;;;;;;5124373;27;20471;-74
2023/09/19 10:02:29;;;;;;;0.98;0.73;;;19.70;1.00;;;;;;5126882;27;20127;-74
2023/09/19 10:05:43;;;;;;;0.85;0.60;;;19.70;1.00;;;;;;5121296;27;20156;-74
2023/09/19 10:07:53;;;;;;;1.98;1.42;;;19.70;1.00;;;;;;5119675;27;20520;-74
2023/09/19 10:13:07;;;;;;;0.20;0.20;;;19.50;1.00;;;;;;5119049;27;20044;-74
2023/09/19 10:15:34;;;;;;;5.72;2.03;;;19.50;1.00;;;;;;5121727;27;20285;-74
2023/09/19 10:18:08;;;;;;;2.60;1.08;;;19.40;1.00;;;;;;5125159;27;20503;-74
2023/09/19 10:20:38;;;;;;;0.95;0.60;;;19.20;99.90;;;;;;5124771;27;20043;-75
2023/09/19 10:23:12;;;;;;;0.15;0.08;;;19.10;1.00;;;;;;5119269;27;20043;-74
2023/09/19 10:25:39;;;;;;;0.32;0.32;;;19.10;99.90;;;;;;5119728;27;20075;-75
2023/09/19 10:28:13;;;;;;;2.30;1.25;;;19.10;99.90;;;;;;5123143;27;20039;-74
2023/09/19 10:30:46;;;;;;;0.35;0.35;;;19.00;99.90;;;;;;5124361;27;20468;-74
2023/09/19 10:33:14;;;;;;;0.22;0.15;;;19.20;99.90;;;;;;5121271;27;20182;-76
2023/09/19 10:35:43;;;;;;;0.15;0.15;;;19.30;99.90;;;;;;5121132;27;20408;-75
2023/09/19 10:38:14;;;;;;;1.45;0.50;;;19.40;99.90;;;;;;5122326;27;20044;-75
2023/09/19 10:40:43;;;;;;;0.35;0.20;;;19.30;99.90;;;;;;5122111;27;20031;-75
2023/09/19 10:43:12;;;;;;;0.57;0.45;;;19.30;99.90;;;;;;5110748;27;20468;-75
2023/09/19 10:45:40;;;;;;;1.25;0.68;;;19.40;99.90;;;;;;5104927;27;20564;-73
2023/09/19 10:48:07;;;;;;;5.18;1.38;;;19.20;99.90;;;;;;5116778;27;20070;-73
2023/09/19 10:51:10;;;;;;;1.75;0.75;;;19.30;99.90;;;;;;5106467;27;20045;-73
2023/09/19 10:53:45;;;;;;;1.20;0.77;;;19.60;99.90;;;;;;5087062;27;20533;-74
2023/09/19 10:56:27;;;;;;;2.33;1.73;;;20.00;99.90;;;;;;5120655;27;20094;-73
2023/09/19 10:59:07;;;;;;;0.13;0.13;;;20.00;99.90;;;;;;5124230;27;20418;-73
2023/09/19 11:01:47;;;;;;;1.25;0.65;;;20.00;99.90;;;;;;5121662;27;20043;-73
2023/09/19 11:04:26;;;;;;;2.88;0.98;;;19.90;99.90;;;;;;5119001;27;20042;-73
2023/09/19 11:07:12;;;;;;;1.45;0.93;;;19.90;99.90;;;;;;5112704;27;20059;-73
2023/09/19 11:09:53;;;;;;;0.10;0.10;;;19.90;99.90;;;;;;5120352;27;20039;-73
2023/09/19 11:12:30;;;;;;;1.08;0.75;;;19.90;99.90;;;;;;5113580;27;20047;-73
2023/09/19 11:14:59;;;;;;;0.10;0.10;;;19.90;99.90;;;;;;5120975;27;20075;-73
2023/09/19 11:17:33;;;;;;;1.05;0.63;;;20.00;99.90;;;;;;5120867;27;20146;-73
2023/09/19 11:22:51;;;;;;;0.52;0.52;;;20.10;99.90;;;;;;5120696;27;20043;-73
2023/09/19 11:25:34;;;;;;;0.20;0.20;;;20.10;99.90;;;;;;5106812;27;20163;-73
2023/09/19 11:28:05;;;;;;;0.00;0.00;;;20.00;99.90;;;;;;5107164;27;20516;-74
2023/09/19 11:30:32;;;;;;;0.15;0.15;;;19.90;99.90;;;;;;5107502;27;20051;-74
2023/09/19 11:33:22;;;;;;;2.47;0.88;;;19.70;99.90;;;;;;5106462;27;20048;-73
2023/09/19 11:36:04;;;;;;;2.65;0.57;;;19.90;99.90;;;;;;5123624;27;20365;-73
2023/09/19 11:38:45;;;;;;;0.30;0.30;;;20.30;99.90;;;;;;5114645;27;20190;-73
2023/09/19 11:41:26;;;;;;;1.85;0.60;;;20.60;99.90;;;;;;5122203;27;20043;-74
2023/09/19 11:43:58;;;;;;;0.10;0.10;;;20.60;99.90;;;;;;5120742;27;20138;-74
2023/09/19 11:46:24;;;;;;;1.55;0.63;;;20.30;99.90;;;;;;5108258;27;20032;-74
2023/09/19 11:48:51;;;;;;;32.80;1.02;;;20.10;99.90;;;;;;5120335;27;20122;-74
2023/09/19 11:51:27;;;;;;;1.42;0.75;;;20.10;99.90;;;;;;5112546;27;20523;-74
2023/09/19 11:53:59;;;;;;;4.25;2.15;;;20.30;99.90;;;;;;5116528;27;20061;-74
2023/09/19 11:56:27;;;;;;;0.45;0.45;;;20.50;99.90;;;;;;5109222;27;20048;-74
2023/09/19 11:58:57;;;;;;;0.17;0.17;;;20.80;99.90;;;;;;5106430;27;20100;-74
2023/09/19 12:01:32;;;;;;;0.05;0.05;;;20.80;99.90;;;;;;5107237;27;20050;-74
2023/09/19 12:03:59;;;;;;;3.92;0.60;;;20.70;99.90;;;;;;5112294;27;20051;-74
2023/09/19 12:06:26;;;;;;;0.30;0.17;;;20.60;99.90;;;;;;5110598;27;20040;-73
2023/09/19 12:08:54;;;;;;;0.13;0.13;;;20.50;99.90;;;;;;5112785;27;20039;-74
2023/09/19 12:11:23;;;;;;;0.95;0.47;;;20.50;99.90;;;;;;5109390;27;20070;-75
2023/09/19 12:13:49;;;;;;;0.38;0.32;;;20.20;99.90;;;;;;5109172;27;20032;-73
2023/09/19 12:16:16;;;;;;;0.00;0.00;;;20.20;99.90;;;;;;5102540;27;20649;-74
2023/09/19 12:18:46;;;;;;;3.30;0.68;;;20.10;99.90;;;;;;5106730;27;20051;-74
2023/09/19 12:21:31;;;;;;;1.40;0.90;;;20.10;99.90;;;;;;5111693;27;20038;-74
2023/09/19 12:24:13;;;;;;;0.17;0.15;;;19.90;99.90;;;;;;5112206;27;20036;-74
2023/09/19 12:26:47;;;;;;;0.77;0.68;;;19.70;99.90;;;;;;5109019;27;20039;-74
2023/09/19 12:29:18;;;;;;;0.98;0.73;;;19.30;99.90;;;;;;5107788;27;20087;-75
2023/09/19 12:31:58;;;;;;;0.43;0.38;;;19.10;99.90;;;;;;5104544;27;20047;-74
2023/09/19 12:34:28;;;;;;;0.52;0.45;;;19.00;99.90;;;;;;5117278;27;20036;-74
2023/09/19 12:37:12;;;;;;;0.47;0.28;;;19.00;99.90;;;;;;5113484;27;20054;-73
2023/09/19 12:39:49;;;;;;;0.55;0.30;;;18.90;99.90;;;;;;5113353;27;20039;-74
2023/09/19 12:42:16;;;;;;;0.38;0.38;;;19.10;99.90;;;;;;5121472;27;20051;-73
2023/09/19 12:44:44;;;;;;;0.52;0.40;;;19.40;99.90;;;;;;5124889;27;20058;-74
2023/09/19 12:47:23;;;;;;;1.33;0.63;;;19.70;99.90;;;;;;5104561;27;20031;-73
2023/09/19 12:50:13;;;;;;;0.30;0.30;;;20.00;99.90;;;;;;5115300;27;20044;-74
2023/09/19 12:52:49;;;;;;;2.88;1.13;;;20.00;99.90;;;;;;5113969;27;20039;-74
2023/09/19 12:55:29;;;;;;;0.60;0.47;;;19.80;99.90;;;;;;5118488;27;20408;-74
2023/09/19 12:58:07;;;;;;;0.35;0.35;;;19.70;99.90;;;;;;5122851;27;20034;-74
2023/09/19 13:00:36;;;;;;;0.43;0.15;;;19.70;99.90;;;;;;5122976;27;20575;-74
2023/09/19 13:03:52;;;;;;;3.65;1.35;;;19.70;99.90;;;;;;5124152;27;20039;-74
2023/09/19 13:06:10;;;;;;;0.30;0.22;;;19.50;99.90;;;;;;5108975;27;20040;-74
2023/09/19 13:08:38;;;;;;;0.00;0.00;;;19.20;99.90;;;;;;5119822;27;20046;-73
2023/09/19 13:11:17;;;;;;;0.47;0.45;;;18.90;99.90;;;;;;5125132;27;20437;-74
2023/09/19 13:13:44;;;;;;;0.88;0.40;;;18.70;99.90;;;;;;5123434;27;20035;-73
2023/09/19 13:16:14;;;;;;;0.00;0.00;;;18.70;99.90;;;;;;5111181;27;20052;-73